sensor_id;sensor_type;location;lat;lon;timestamp;P1;durP1;ratioP1;P2;durP2;ratioP2
33593;SDS011;19920;52.242;20.940;2024-02-16T00:00:17;33.85;;;18.17;;
33593;SDS011;19920;52.242;20.940;2024-02-16T00:02:43;27.23;;;17.05;;
33593;SDS011;19920;52.242;20.940;2024-02-16T00:05:11;30.23;;;17.92;;
33593;SDS011;19920;52.242;20.940;2024-02-16T00:07:37;28.67;;;16.40;;
33593;SDS011;19920;52.242;20.940;2024-02-16T00:10:07;25.67;;;16.30;;
33593;SDS011;19920;52.242;20.940;2024-02-16T00:12:34;25.33;;;16.60;;
33593;SDS011;19920;52.242;20.940;2024-02-16T00:15:00;26.02;;;16.35;;
33593;SDS011;19920;52.242;20.940;2024-02-16T00:17:27;26.45;;;16.10;;
33593;SDS011;19920;52.242;20.940;2024-02-16T00:19:53;29.38;;;16.02;;
33593;SDS011;19920;52.242;20.940;2024-02-16T00:22:19;29.52;;;16.25;;
33593;SDS011;19920;52.242;20.940;2024-02-16T00:24:45;28.40;;;15.18;;
33593;SDS011;19920;52.242;20.940;2024-02-16T00:27:11;28.00;;;16.77;;
33593;SDS011;19920;52.242;20.940;2024-02-16T00:29:37;24.48;;;15.07;;
33593;SDS011;19920;52.242;20.940;2024-02-16T00:32:04;27.55;;;15.65;;
33593;SDS011;19920;52.242;20.940;2024-02-16T00:34:35;26.70;;;14.90;;
33593;SDS011;19920;52.242;20.940;2024-02-16T00:37:01;24.10;;;15.43;;
33593;SDS011;19920;52.242;20.940;2024-02-16T00:39:30;26.15;;;15.23;;
33593;SDS011;19920;52.242;20.940;2024-02-16T00:41:55;22.60;;;14.20;;
33593;SDS011;19920;52.242;20.940;2024-02-16T00:44:21;27.42;;;15.50;;
33593;SDS011;19920;52.242;20.940;2024-02-16T00:46:47;26.67;;;14.15;;
33593;SDS011;19920;52.242;20.940;2024-02-16T00:49:12;20.25;;;14.02;;
33593;SDS011;19920;52.242;20.940;2024-02-16T00:51:38;26.35;;;13.50;;
33593;SDS011;19920;52.242;20.940;2024-02-16T00:54:04;22.08;;;13.13;;
33593;SDS011;19920;52.242;20.940;2024-02-16T00:56:31;20.13;;;12.57;;
33593;SDS011;19920;52.242;20.940;2024-02-16T00:58:57;19.95;;;13.05;;
33593;SDS011;19920;52.242;20.940;2024-02-16T01:01:23;20.45;;;12.75;;
33593;SDS011;19920;52.242;20.940;2024-02-16T01:03:51;20.00;;;11.82;;
33593;SDS011;19920;52.242;20.940;2024-02-16T01:06:17;18.48;;;11.20;;
33593;SDS011;19920;52.242;20.940;2024-02-16T01:08:43;19.98;;;11.13;;
33593;SDS011;19920;52.242;20.940;2024-02-16T01:11:09;20.30;;;11.45;;
33593;SDS011;19920;52.242;20.940;2024-02-16T01:13:35;17.40;;;11.48;;
33593;SDS011;19920;52.242;20.940;2024-02-16T01:16:02;22.17;;;11.40;;
33593;SDS011;19920;52.242;20.940;2024-02-16T01:18:28;16.10;;;10.68;;
33593;SDS011;19920;52.242;20.940;2024-02-16T01:20:54;18.73;;;11.00;;
33593;SDS011;19920;52.242;20.940;2024-02-16T01:23:20;17.70;;;11.35;;
33593;SDS011;19920;52.242;20.940;2024-02-16T01:25:46;19.63;;;10.38;;
33593;SDS011;19920;52.242;20.940;2024-02-16T01:28:12;19.10;;;10.45;;
33593;SDS011;19920;52.242;20.940;2024-02-16T01:30:39;17.35;;;10.30;;
33593;SDS011;19920;52.242;20.940;2024-02-16T01:33:05;17.17;;;10.32;;
33593;SDS011;19920;52.242;20.940;2024-02-16T01:35:34;18.38;;;10.85;;
33593;SDS011;19920;52.242;20.940;2024-02-16T01:38:00;16.73;;;9.80;;
33593;SDS011;19920;52.242;20.940;2024-02-16T01:40:26;15.38;;;9.45;;
33593;SDS011;19920;52.242;20.940;2024-02-16T01:42:53;16.33;;;9.82;;
33593;SDS011;19920;52.242;20.940;2024-02-16T01:45:19;17.83;;;10.43;;
33593;SDS011;19920;52.242;20.940;2024-02-16T01:47:46;17.48;;;9.75;;
33593;SDS011;19920;52.242;20.940;2024-02-16T01:50:14;18.50;;;10.00;;
33593;SDS011;19920;52.242;20.940;2024-02-16T01:52:42;18.17;;;9.52;;
33593;SDS011;19920;52.242;20.940;2024-02-16T01:55:08;14.50;;;8.73;;
33593;SDS011;19920;52.242;20.940;2024-02-16T01:57:35;15.40;;;9.50;;
33593;SDS011;19920;52.242;20.940;2024-02-16T02:00:01;13.88;;;8.85;;
33593;SDS011;19920;52.242;20.940;2024-02-16T02:02:28;15.35;;;9.15;;
33593;SDS011;19920;52.242;20.940;2024-02-16T02:04:54;15.15;;;9.07;;
33593;SDS011;19920;52.242;20.940;2024-02-16T02:07:24;16.80;;;9.30;;
33593;SDS011;19920;52.242;20.940;2024-02-16T02:09:53;16.30;;;9.30;;
33593;SDS011;19920;52.242;20.940;2024-02-16T02:12:19;17.20;;;9.60;;
33593;SDS011;19920;52.242;20.940;2024-02-16T02:14:45;15.55;;;9.55;;
33593;SDS011;19920;52.242;20.940;2024-02-16T02:17:12;14.82;;;9.25;;
33593;SDS011;19920;52.242;20.940;2024-02-16T02:19:38;14.65;;;9.18;;
33593;SDS011;19920;52.242;20.940;2024-02-16T02:22:03;15.38;;;9.25;;
33593;SDS011;19920;52.242;20.940;2024-02-16T02:24:29;15.02;;;9.10;;
33593;SDS011;19920;52.242;20.940;2024-02-16T02:26:55;15.40;;;9.15;;
33593;SDS011;19920;52.242;20.940;2024-02-16T02:29:22;18.67;;;9.77;;
33593;SDS011;19920;52.242;20.940;2024-02-16T02:31:48;13.68;;;9.27;;
33593;SDS011;19920;52.242;20.940;2024-02-16T02:34:14;16.15;;;9.20;;
33593;SDS011;19920;52.242;20.940;2024-02-16T02:36:40;15.48;;;9.65;;
33593;SDS011;19920;52.242;20.940;2024-02-16T02:39:06;16.70;;;9.27;;
33593;SDS011;19920;52.242;20.940;2024-02-16T02:41:32;15.32;;;9.52;;
33593;SDS011;19920;52.242;20.940;2024-02-16T02:43:57;20.00;;;10.05;;
33593;SDS011;19920;52.242;20.940;2024-02-16T02:46:23;16.35;;;9.13;;
33593;SDS011;19920;52.242;20.940;2024-02-16T02:48:52;17.00;;;9.57;;
33593;SDS011;19920;52.242;20.940;2024-02-16T02:51:18;14.60;;;8.93;;
33593;SDS011;19920;52.242;20.940;2024-02-16T02:53:44;13.95;;;8.68;;
33593;SDS011;19920;52.242;20.940;2024-02-16T02:56:09;15.93;;;9.43;;
33593;SDS011;19920;52.242;20.940;2024-02-16T02:58:35;17.60;;;9.52;;
33593;SDS011;19920;52.242;20.940;2024-02-16T03:01:01;14.88;;;9.60;;
33593;SDS011;19920;52.242;20.940;2024-02-16T03:03:26;16.25;;;9.70;;
33593;SDS011;19920;52.242;20.940;2024-02-16T03:05:52;13.13;;;8.48;;
33593;SDS011;19920;52.242;20.940;2024-02-16T03:08:17;15.13;;;9.18;;
33593;SDS011;19920;52.242;20.940;2024-02-16T03:10:43;18.50;;;9.02;;
33593;SDS011;19920;52.242;20.940;2024-02-16T03:13:09;15.57;;;8.60;;
33593;SDS011;19920;52.242;20.940;2024-02-16T03:15:37;14.38;;;9.27;;
33593;SDS011;19920;52.242;20.940;2024-02-16T03:18:04;14.52;;;8.70;;
33593;SDS011;19920;52.242;20.940;2024-02-16T03:20:33;17.02;;;9.30;;
33593;SDS011;19920;52.242;20.940;2024-02-16T03:22:59;14.70;;;8.73;;
33593;SDS011;19920;52.242;20.940;2024-02-16T03:25:25;15.43;;;9.25;;
33593;SDS011;19920;52.242;20.940;2024-02-16T03:27:51;15.45;;;8.77;;
33593;SDS011;19920;52.242;20.940;2024-02-16T03:30:18;18.20;;;9.13;;
33593;SDS011;19920;52.242;20.940;2024-02-16T03:32:47;15.30;;;8.85;;
33593;SDS011;19920;52.242;20.940;2024-02-16T03:35:16;14.27;;;8.88;;
33593;SDS011;19920;52.242;20.940;2024-02-16T03:37:42;14.75;;;8.43;;
33593;SDS011;19920;52.242;20.940;2024-02-16T03:40:08;14.77;;;8.98;;
33593;SDS011;19920;52.242;20.940;2024-02-16T03:42:34;15.35;;;8.38;;
33593;SDS011;19920;52.242;20.940;2024-02-16T03:45:02;13.27;;;8.50;;
33593;SDS011;19920;52.242;20.940;2024-02-16T03:47:27;11.60;;;7.95;;
33593;SDS011;19920;52.242;20.940;2024-02-16T03:49:53;15.23;;;9.13;;
33593;SDS011;19920;52.242;20.940;2024-02-16T03:52:19;14.32;;;8.63;;
33593;SDS011;19920;52.242;20.940;2024-02-16T03:54:44;13.88;;;7.60;;
33593;SDS011;19920;52.242;20.940;2024-02-16T03:57:13;18.75;;;8.27;;
33593;SDS011;19920;52.242;20.940;2024-02-16T03:59:41;11.73;;;8.00;;
33593;SDS011;19920;52.242;20.940;2024-02-16T04:02:10;15.15;;;8.27;;
33593;SDS011;19920;52.242;20.940;2024-02-16T04:04:38;16.98;;;9.15;;
33593;SDS011;19920;52.242;20.940;2024-02-16T04:07:04;14.05;;;8.48;;
33593;SDS011;19920;52.242;20.940;2024-02-16T04:09:32;13.50;;;8.55;;
33593;SDS011;19920;52.242;20.940;2024-02-16T04:12:00;15.27;;;7.90;;
33593;SDS011;19920;52.242;20.940;2024-02-16T04:14:27;14.23;;;8.45;;
33593;SDS011;19920;52.242;20.940;2024-02-16T04:16:52;14.80;;;7.93;;
33593;SDS011;19920;52.242;20.940;2024-02-16T04:19:18;14.45;;;8.35;;
33593;SDS011;19920;52.242;20.940;2024-02-16T04:21:44;14.13;;;8.38;;
33593;SDS011;19920;52.242;20.940;2024-02-16T04:24:09;16.83;;;8.98;;
33593;SDS011;19920;52.242;20.940;2024-02-16T04:26:35;13.48;;;8.50;;
33593;SDS011;19920;52.242;20.940;2024-02-16T04:29:01;16.40;;;9.02;;
33593;SDS011;19920;52.242;20.940;2024-02-16T04:31:29;18.58;;;8.95;;
33593;SDS011;19920;52.242;20.940;2024-02-16T04:33:55;17.13;;;9.20;;
33593;SDS011;19920;52.242;20.940;2024-02-16T04:36:20;15.13;;;8.88;;
33593;SDS011;19920;52.242;20.940;2024-02-16T04:38:46;17.25;;;8.75;;
33593;SDS011;19920;52.242;20.940;2024-02-16T04:41:12;15.25;;;8.48;;
33593;SDS011;19920;52.242;20.940;2024-02-16T04:43:38;15.15;;;8.73;;
33593;SDS011;19920;52.242;20.940;2024-02-16T04:46:04;12.90;;;8.48;;
33593;SDS011;19920;52.242;20.940;2024-02-16T04:48:30;15.02;;;8.85;;
33593;SDS011;19920;52.242;20.940;2024-02-16T04:50:57;16.88;;;9.02;;
33593;SDS011;19920;52.242;20.940;2024-02-16T04:53:22;14.85;;;8.73;;
33593;SDS011;19920;52.242;20.940;2024-02-16T04:55:48;15.07;;;9.57;;
33593;SDS011;19920;52.242;20.940;2024-02-16T04:58:14;15.43;;;8.93;;
33593;SDS011;19920;52.242;20.940;2024-02-16T05:00:39;14.57;;;9.02;;
33593;SDS011;19920;52.242;20.940;2024-02-16T05:03:05;17.60;;;9.30;;
33593;SDS011;19920;52.242;20.940;2024-02-16T05:05:31;17.00;;;8.88;;
33593;SDS011;19920;52.242;20.940;2024-02-16T05:07:56;19.02;;;9.70;;
33593;SDS011;19920;52.242;20.940;2024-02-16T05:10:22;15.85;;;9.27;;
33593;SDS011;19920;52.242;20.940;2024-02-16T05:12:48;19.85;;;9.10;;
33593;SDS011;19920;52.242;20.940;2024-02-16T05:15:13;16.00;;;8.88;;
33593;SDS011;19920;52.242;20.940;2024-02-16T05:17:39;16.95;;;8.77;;
33593;SDS011;19920;52.242;20.940;2024-02-16T05:20:12;17.23;;;8.90;;
33593;SDS011;19920;52.242;20.940;2024-02-16T05:22:41;14.18;;;8.70;;
33593;SDS011;19920;52.242;20.940;2024-02-16T05:25:11;15.73;;;9.55;;
33593;SDS011;19920;52.242;20.940;2024-02-16T05:27:37;14.18;;;8.77;;
33593;SDS011;19920;52.242;20.940;2024-02-16T05:30:03;16.85;;;9.30;;
33593;SDS011;19920;52.242;20.940;2024-02-16T05:32:32;14.30;;;9.20;;
33593;SDS011;19920;52.242;20.940;2024-02-16T05:35:04;14.23;;;9.32;;
33593;SDS011;19920;52.242;20.940;2024-02-16T05:37:39;15.00;;;9.10;;
33593;SDS011;19920;52.242;20.940;2024-02-16T05:40:09;16.58;;;9.38;;
33593;SDS011;19920;52.242;20.940;2024-02-16T05:42:46;16.38;;;9.32;;
33593;SDS011;19920;52.242;20.940;2024-02-16T05:45:13;15.98;;;9.38;;
33593;SDS011;19920;52.242;20.940;2024-02-16T05:47:39;16.35;;;9.35;;
33593;SDS011;19920;52.242;20.940;2024-02-16T05:50:06;18.63;;;9.40;;
33593;SDS011;19920;52.242;20.940;2024-02-16T05:52:32;17.45;;;9.73;;
33593;SDS011;19920;52.242;20.940;2024-02-16T05:54:57;16.45;;;9.27;;
33593;SDS011;19920;52.242;20.940;2024-02-16T05:57:23;19.50;;;9.18;;
33593;SDS011;19920;52.242;20.940;2024-02-16T05:59:49;16.25;;;9.93;;
33593;SDS011;19920;52.242;20.940;2024-02-16T06:02:17;18.50;;;9.52;;
33593;SDS011;19920;52.242;20.940;2024-02-16T06:04:43;20.40;;;9.63;;
33593;SDS011;19920;52.242;20.940;2024-02-16T06:07:09;16.58;;;9.77;;
33593;SDS011;19920;52.242;20.940;2024-02-16T06:09:36;17.65;;;9.93;;
33593;SDS011;19920;52.242;20.940;2024-02-16T06:12:05;16.00;;;9.63;;
33593;SDS011;19920;52.242;20.940;2024-02-16T06:14:32;15.13;;;9.63;;
33593;SDS011;19920;52.242;20.940;2024-02-16T06:16:58;20.27;;;9.50;;
33593;SDS011;19920;52.242;20.940;2024-02-16T06:19:24;16.02;;;9.90;;
33593;SDS011;19920;52.242;20.940;2024-02-16T06:21:50;21.85;;;10.00;;
33593;SDS011;19920;52.242;20.940;2024-02-16T06:24:16;17.63;;;9.63;;
33593;SDS011;19920;52.242;20.940;2024-02-16T06:26:43;16.25;;;9.70;;
33593;SDS011;19920;52.242;20.940;2024-02-16T06:29:09;16.95;;;9.63;;
33593;SDS011;19920;52.242;20.940;2024-02-16T06:31:34;21.00;;;11.18;;
33593;SDS011;19920;52.242;20.940;2024-02-16T06:34:00;18.83;;;10.18;;
33593;SDS011;19920;52.242;20.940;2024-02-16T06:36:26;17.40;;;10.50;;
33593;SDS011;19920;52.242;20.940;2024-02-16T06:38:51;17.42;;;9.98;;
33593;SDS011;19920;52.242;20.940;2024-02-16T06:41:17;20.55;;;10.27;;
33593;SDS011;19920;52.242;20.940;2024-02-16T06:43:43;17.52;;;10.25;;
33593;SDS011;19920;52.242;20.940;2024-02-16T06:46:09;17.63;;;9.80;;
33593;SDS011;19920;52.242;20.940;2024-02-16T06:48:35;19.63;;;10.50;;
33593;SDS011;19920;52.242;20.940;2024-02-16T06:51:00;17.52;;;10.00;;
33593;SDS011;19920;52.242;20.940;2024-02-16T06:53:26;19.45;;;10.15;;
33593;SDS011;19920;52.242;20.940;2024-02-16T06:55:52;20.52;;;11.05;;
33593;SDS011;19920;52.242;20.940;2024-02-16T06:58:17;17.58;;;10.23;;
33593;SDS011;19920;52.242;20.940;2024-02-16T07:00:43;17.08;;;10.32;;
33593;SDS011;19920;52.242;20.940;2024-02-16T07:03:09;21.05;;;10.65;;
33593;SDS011;19920;52.242;20.940;2024-02-16T07:05:34;21.45;;;11.13;;
33593;SDS011;19920;52.242;20.940;2024-02-16T07:08:00;19.27;;;10.80;;
33593;SDS011;19920;52.242;20.940;2024-02-16T07:10:26;23.20;;;11.38;;
33593;SDS011;19920;52.242;20.940;2024-02-16T07:12:51;21.77;;;11.02;;
33593;SDS011;19920;52.242;20.940;2024-02-16T07:15:17;27.85;;;12.40;;
33593;SDS011;19920;52.242;20.940;2024-02-16T07:17:43;20.25;;;11.20;;
33593;SDS011;19920;52.242;20.940;2024-02-16T07:20:09;24.75;;;11.98;;
33593;SDS011;19920;52.242;20.940;2024-02-16T07:22:35;24.58;;;11.55;;
33593;SDS011;19920;52.242;20.940;2024-02-16T07:25:01;20.30;;;11.63;;
33593;SDS011;19920;52.242;20.940;2024-02-16T07:27:28;19.27;;;10.88;;
33593;SDS011;19920;52.242;20.940;2024-02-16T07:29:54;23.63;;;11.60;;
33593;SDS011;19920;52.242;20.940;2024-02-16T07:32:20;20.13;;;11.27;;
33593;SDS011;19920;52.242;20.940;2024-02-16T07:34:45;19.80;;;11.90;;
33593;SDS011;19920;52.242;20.940;2024-02-16T07:37:12;19.35;;;10.88;;
33593;SDS011;19920;52.242;20.940;2024-02-16T07:39:38;21.90;;;11.05;;
33593;SDS011;19920;52.242;20.940;2024-02-16T07:42:05;20.35;;;11.30;;
33593;SDS011;19920;52.242;20.940;2024-02-16T07:44:34;19.92;;;11.20;;
33593;SDS011;19920;52.242;20.940;2024-02-16T07:47:01;20.35;;;11.30;;
33593;SDS011;19920;52.242;20.940;2024-02-16T07:49:27;16.50;;;10.73;;
33593;SDS011;19920;52.242;20.940;2024-02-16T07:51:53;20.65;;;10.90;;
33593;SDS011;19920;52.242;20.940;2024-02-16T07:54:18;21.02;;;10.88;;
33593;SDS011;19920;52.242;20.940;2024-02-16T07:56:44;18.77;;;11.52;;
33593;SDS011;19920;52.242;20.940;2024-02-16T07:59:10;19.98;;;10.85;;
33593;SDS011;19920;52.242;20.940;2024-02-16T08:01:35;18.80;;;10.93;;
33593;SDS011;19920;52.242;20.940;2024-02-16T08:04:01;19.77;;;11.32;;
33593;SDS011;19920;52.242;20.940;2024-02-16T08:06:26;23.08;;;11.70;;
33593;SDS011;19920;52.242;20.940;2024-02-16T08:08:52;20.45;;;11.23;;
33593;SDS011;19920;52.242;20.940;2024-02-16T08:11:19;21.23;;;10.77;;
33593;SDS011;19920;52.242;20.940;2024-02-16T08:13:45;17.90;;;10.65;;
33593;SDS011;19920;52.242;20.940;2024-02-16T08:16:11;18.95;;;11.18;;
33593;SDS011;19920;52.242;20.940;2024-02-16T08:18:37;18.15;;;10.65;;
33593;SDS011;19920;52.242;20.940;2024-02-16T08:21:02;19.20;;;10.88;;
33593;SDS011;19920;52.242;20.940;2024-02-16T08:23:28;19.25;;;10.63;;
33593;SDS011;19920;52.242;20.940;2024-02-16T08:25:53;17.92;;;10.40;;
33593;SDS011;19920;52.242;20.940;2024-02-16T08:28:19;20.23;;;10.90;;
33593;SDS011;19920;52.242;20.940;2024-02-16T08:30:44;22.48;;;10.45;;
33593;SDS011;19920;52.242;20.940;2024-02-16T08:33:10;19.23;;;10.55;;
33593;SDS011;19920;52.242;20.940;2024-02-16T08:35:37;16.65;;;10.10;;
33593;SDS011;19920;52.242;20.940;2024-02-16T08:38:04;19.02;;;10.25;;
33593;SDS011;19920;52.242;20.940;2024-02-16T08:40:30;20.60;;;10.20;;
33593;SDS011;19920;52.242;20.940;2024-02-16T08:42:55;22.95;;;11.05;;
33593;SDS011;19920;52.242;20.940;2024-02-16T08:45:21;19.77;;;10.25;;
33593;SDS011;19920;52.242;20.940;2024-02-16T08:47:47;22.50;;;11.13;;
33593;SDS011;19920;52.242;20.940;2024-02-16T08:50:13;19.08;;;10.70;;
33593;SDS011;19920;52.242;20.940;2024-02-16T08:52:39;19.05;;;10.88;;
33593;SDS011;19920;52.242;20.940;2024-02-16T08:55:04;18.10;;;9.98;;
33593;SDS011;19920;52.242;20.940;2024-02-16T08:57:33;14.80;;;10.30;;
33593;SDS011;19920;52.242;20.940;2024-02-16T08:59:59;19.05;;;10.80;;
33593;SDS011;19920;52.242;20.940;2024-02-16T09:02:24;20.58;;;10.70;;
33593;SDS011;19920;52.242;20.940;2024-02-16T09:04:50;19.27;;;11.00;;
33593;SDS011;19920;52.242;20.940;2024-02-16T09:07:16;16.60;;;10.60;;
33593;SDS011;19920;52.242;20.940;2024-02-16T09:09:41;18.42;;;10.25;;
33593;SDS011;19920;52.242;20.940;2024-02-16T09:12:07;16.85;;;10.15;;
33593;SDS011;19920;52.242;20.940;2024-02-16T09:14:34;18.65;;;9.82;;
33593;SDS011;19920;52.242;20.940;2024-02-16T09:17:00;18.80;;;9.73;;
33593;SDS011;19920;52.242;20.940;2024-02-16T09:19:25;19.38;;;9.95;;
33593;SDS011;19920;52.242;20.940;2024-02-16T09:21:52;20.35;;;10.43;;
33593;SDS011;19920;52.242;20.940;2024-02-16T09:24:19;18.58;;;10.40;;
33593;SDS011;19920;52.242;20.940;2024-02-16T09:26:45;16.92;;;9.73;;
33593;SDS011;19920;52.242;20.940;2024-02-16T09:29:12;17.90;;;9.60;;
33593;SDS011;19920;52.242;20.940;2024-02-16T09:31:38;13.85;;;9.27;;
33593;SDS011;19920;52.242;20.940;2024-02-16T09:34:07;14.98;;;9.27;;
33593;SDS011;19920;52.242;20.940;2024-02-16T09:36:33;11.98;;;8.52;;
33593;SDS011;19920;52.242;20.940;2024-02-16T09:39:01;16.83;;;9.82;;
33593;SDS011;19920;52.242;20.940;2024-02-16T09:41:27;16.80;;;9.68;;
33593;SDS011;19920;52.242;20.940;2024-02-16T09:43:53;18.77;;;9.95;;
33593;SDS011;19920;52.242;20.940;2024-02-16T09:46:19;15.90;;;9.82;;
33593;SDS011;19920;52.242;20.940;2024-02-16T09:48:46;18.10;;;9.48;;
33593;SDS011;19920;52.242;20.940;2024-02-16T09:51:17;17.17;;;9.32;;
33593;SDS011;19920;52.242;20.940;2024-02-16T09:53:43;15.70;;;9.85;;
33593;SDS011;19920;52.242;20.940;2024-02-16T09:56:17;15.68;;;9.60;;
33593;SDS011;19920;52.242;20.940;2024-02-16T09:58:42;15.73;;;9.00;;
33593;SDS011;19920;52.242;20.940;2024-02-16T10:01:16;13.77;;;8.77;;
33593;SDS011;19920;52.242;20.940;2024-02-16T10:03:44;15.18;;;8.65;;
33593;SDS011;19920;52.242;20.940;2024-02-16T10:06:10;14.23;;;8.82;;
33593;SDS011;19920;52.242;20.940;2024-02-16T10:08:53;12.55;;;8.60;;
33593;SDS011;19920;52.242;20.940;2024-02-16T10:11:20;17.95;;;9.13;;
33593;SDS011;19920;52.242;20.940;2024-02-16T10:14:02;15.38;;;9.65;;
33593;SDS011;19920;52.242;20.940;2024-02-16T10:16:28;15.67;;;10.00;;
33593;SDS011;19920;52.242;20.940;2024-02-16T10:18:55;15.52;;;9.77;;
33593;SDS011;19920;52.242;20.940;2024-02-16T10:21:28;15.70;;;10.00;;
33593;SDS011;19920;52.242;20.940;2024-02-16T10:24:20;19.35;;;10.63;;
33593;SDS011;19920;52.242;20.940;2024-02-16T10:26:46;17.27;;;9.90;;
33593;SDS011;19920;52.242;20.940;2024-02-16T10:29:12;19.48;;;10.00;;
33593;SDS011;19920;52.242;20.940;2024-02-16T10:31:41;18.42;;;9.93;;
33593;SDS011;19920;52.242;20.940;2024-02-16T10:34:07;20.10;;;10.05;;
33593;SDS011;19920;52.242;20.940;2024-02-16T10:36:35;18.65;;;11.20;;
33593;SDS011;19920;52.242;20.940;2024-02-16T10:39:02;15.68;;;9.82;;
33593;SDS011;19920;52.242;20.940;2024-02-16T10:41:37;19.02;;;10.40;;
33593;SDS011;19920;52.242;20.940;2024-02-16T10:44:05;19.55;;;11.15;;
33593;SDS011;19920;52.242;20.940;2024-02-16T10:46:31;15.00;;;10.20;;
33593;SDS011;19920;52.242;20.940;2024-02-16T10:48:57;19.25;;;10.55;;
33593;SDS011;19920;52.242;20.940;2024-02-16T10:51:25;18.33;;;11.88;;
33593;SDS011;19920;52.242;20.940;2024-02-16T10:54:03;17.80;;;10.57;;
33593;SDS011;19920;52.242;20.940;2024-02-16T10:56:36;15.73;;;10.88;;
33593;SDS011;19920;52.242;20.940;2024-02-16T10:59:09;18.35;;;10.52;;
33593;SDS011;19920;52.242;20.940;2024-02-16T11:01:42;19.77;;;10.93;;
33593;SDS011;19920;52.242;20.940;2024-02-16T11:04:16;18.92;;;10.40;;
33593;SDS011;19920;52.242;20.940;2024-02-16T11:06:52;17.90;;;10.52;;
33593;SDS011;19920;52.242;20.940;2024-02-16T11:11:53;19.77;;;11.05;;
33593;SDS011;19920;52.242;20.940;2024-02-16T11:14:21;17.73;;;10.48;;
33593;SDS011;19920;52.242;20.940;2024-02-16T11:16:48;17.52;;;10.23;;
33593;SDS011;19920;52.242;20.940;2024-02-16T11:19:14;20.33;;;11.05;;
33593;SDS011;19920;52.242;20.940;2024-02-16T11:22:03;17.48;;;10.60;;
33593;SDS011;19920;52.242;20.940;2024-02-16T11:24:32;17.38;;;10.00;;
33593;SDS011;19920;52.242;20.940;2024-02-16T11:27:00;15.85;;;10.10;;
33593;SDS011;19920;52.242;20.940;2024-02-16T11:29:36;20.75;;;10.05;;
33593;SDS011;19920;52.242;20.940;2024-02-16T11:32:04;18.85;;;10.55;;
33593;SDS011;19920;52.242;20.940;2024-02-16T11:34:30;16.08;;;10.30;;
33593;SDS011;19920;52.242;20.940;2024-02-16T11:36:57;17.45;;;10.43;;
33593;SDS011;19920;52.242;20.940;2024-02-16T11:39:24;14.52;;;9.88;;
33593;SDS011;19920;52.242;20.940;2024-02-16T11:44:30;18.02;;;10.55;;
33593;SDS011;19920;52.242;20.940;2024-02-16T11:46:57;15.55;;;11.18;;
33593;SDS011;19920;52.242;20.940;2024-02-16T11:49:24;18.02;;;11.45;;
33593;SDS011;19920;52.242;20.940;2024-02-16T11:51:50;19.25;;;10.73;;
33593;SDS011;19920;52.242;20.940;2024-02-16T11:54:16;21.35;;;11.18;;
33593;SDS011;19920;52.242;20.940;2024-02-16T11:56:43;18.10;;;10.13;;
33593;SDS011;19920;52.242;20.940;2024-02-16T11:59:12;15.60;;;10.77;;
33593;SDS011;19920;52.242;20.940;2024-02-16T12:04:23;17.50;;;11.18;;
33593;SDS011;19920;52.242;20.940;2024-02-16T12:06:55;18.10;;;10.93;;
33593;SDS011;19920;52.242;20.940;2024-02-16T12:09:21;17.17;;;10.82;;
33593;SDS011;19920;52.242;20.940;2024-02-16T12:11:47;19.73;;;10.43;;
33593;SDS011;19920;52.242;20.940;2024-02-16T12:14:14;19.30;;;10.88;;
33593;SDS011;19920;52.242;20.940;2024-02-16T12:16:47;19.10;;;11.30;;
33593;SDS011;19920;52.242;20.940;2024-02-16T12:19:14;19.27;;;11.38;;
33593;SDS011;19920;52.242;20.940;2024-02-16T12:21:39;20.05;;;11.30;;
33593;SDS011;19920;52.242;20.940;2024-02-16T12:24:05;19.58;;;10.95;;
33593;SDS011;19920;52.242;20.940;2024-02-16T12:26:31;19.55;;;11.07;;
33593;SDS011;19920;52.242;20.940;2024-02-16T12:28:57;19.73;;;11.40;;
33593;SDS011;19920;52.242;20.940;2024-02-16T12:31:23;20.83;;;11.93;;
33593;SDS011;19920;52.242;20.940;2024-02-16T12:33:50;20.00;;;11.25;;
33593;SDS011;19920;52.242;20.940;2024-02-16T12:36:16;18.75;;;11.18;;
33593;SDS011;19920;52.242;20.940;2024-02-16T12:38:42;15.65;;;10.55;;
33593;SDS011;19920;52.242;20.940;2024-02-16T12:41:07;16.17;;;10.15;;
33593;SDS011;19920;52.242;20.940;2024-02-16T12:43:33;16.60;;;9.55;;
33593;SDS011;19920;52.242;20.940;2024-02-16T12:45:59;18.90;;;9.57;;
33593;SDS011;19920;52.242;20.940;2024-02-16T12:48:27;13.43;;;9.75;;
33593;SDS011;19920;52.242;20.940;2024-02-16T12:50:53;14.98;;;9.52;;
33593;SDS011;19920;52.242;20.940;2024-02-16T12:53:19;17.83;;;10.77;;
33593;SDS011;19920;52.242;20.940;2024-02-16T12:55:46;18.25;;;9.40;;
33593;SDS011;19920;52.242;20.940;2024-02-16T12:58:12;17.13;;;9.77;;
33593;SDS011;19920;52.242;20.940;2024-02-16T13:00:38;15.10;;;9.05;;
33593;SDS011;19920;52.242;20.940;2024-02-16T13:03:04;20.80;;;9.30;;
33593;SDS011;19920;52.242;20.940;2024-02-16T13:05:30;14.32;;;9.07;;
33593;SDS011;19920;52.242;20.940;2024-02-16T13:07:57;14.48;;;9.13;;
33593;SDS011;19920;52.242;20.940;2024-02-16T13:10:23;15.05;;;9.23;;
33593;SDS011;19920;52.242;20.940;2024-02-16T13:12:49;16.00;;;9.68;;
33593;SDS011;19920;52.242;20.940;2024-02-16T13:15:15;16.45;;;8.93;;
33593;SDS011;19920;52.242;20.940;2024-02-16T13:17:41;15.80;;;9.25;;
33593;SDS011;19920;52.242;20.940;2024-02-16T13:20:07;12.98;;;9.18;;
33593;SDS011;19920;52.242;20.940;2024-02-16T13:22:37;15.32;;;9.20;;
33593;SDS011;19920;52.242;20.940;2024-02-16T13:25:03;16.47;;;9.17;;
33593;SDS011;19920;52.242;20.940;2024-02-16T13:27:30;12.55;;;8.10;;
33593;SDS011;19920;52.242;20.940;2024-02-16T13:30:02;13.57;;;8.15;;
33593;SDS011;19920;52.242;20.940;2024-02-16T13:32:31;14.05;;;8.45;;
33593;SDS011;19920;52.242;20.940;2024-02-16T13:34:57;13.68;;;8.35;;
33593;SDS011;19920;52.242;20.940;2024-02-16T13:37:24;13.85;;;8.63;;
33593;SDS011;19920;52.242;20.940;2024-02-16T13:39:50;15.18;;;8.88;;
33593;SDS011;19920;52.242;20.940;2024-02-16T13:42:16;15.98;;;9.15;;
33593;SDS011;19920;52.242;20.940;2024-02-16T13:44:41;17.83;;;9.27;;
33593;SDS011;19920;52.242;20.940;2024-02-16T13:47:08;13.32;;;9.38;;
33593;SDS011;19920;52.242;20.940;2024-02-16T13:49:33;19.65;;;9.85;;
33593;SDS011;19920;52.242;20.940;2024-02-16T13:51:59;14.38;;;8.60;;
33593;SDS011;19920;52.242;20.940;2024-02-16T13:54:25;15.82;;;8.68;;
33593;SDS011;19920;52.242;20.940;2024-02-16T13:56:52;15.25;;;8.65;;
33593;SDS011;19920;52.242;20.940;2024-02-16T13:59:18;13.48;;;9.02;;
33593;SDS011;19920;52.242;20.940;2024-02-16T14:01:44;16.00;;;10.18;;
33593;SDS011;19920;52.242;20.940;2024-02-16T14:04:09;12.52;;;9.48;;
33593;SDS011;19920;52.242;20.940;2024-02-16T14:06:35;12.85;;;8.32;;
33593;SDS011;19920;52.242;20.940;2024-02-16T14:09:01;16.70;;;9.05;;
33593;SDS011;19920;52.242;20.940;2024-02-16T14:11:33;13.43;;;8.60;;
33593;SDS011;19920;52.242;20.940;2024-02-16T14:14:02;15.87;;;9.57;;
33593;SDS011;19920;52.242;20.940;2024-02-16T14:16:29;13.73;;;9.60;;
33593;SDS011;19920;52.242;20.940;2024-02-16T14:18:55;13.93;;;9.63;;
33593;SDS011;19920;52.242;20.940;2024-02-16T14:21:21;14.50;;;9.25;;